Time;durP1;ratioP1;P1;durP2;ratioP2;P2;SDS_P1;SDS_P2;PMS_P1;PMS_P2;Temp;Humidity;BMP_temperature;BMP_pressure;BME280_temperature;BME280_humidity;BME280_pressure;Samples;Min_cycle;Max_cycle;Signal;HPM_P1;HPM_P2
2022/04/16 00:02:11;;;;;;;6.40;2.60;;;;;;;;;;761532;183;919198;-61
2022/04/16 00:04:36;;;;;;;5.27;2.90;;;;;;;;;;754351;184;918027;-60
2022/04/16 00:07:02;;;;;;;2.97;2.03;;;;;;;;;;747584;185;918876;-60
2022/04/16 00:09:28;;;;;;;4.60;2.97;;;;;;;;;;757888;184;919424;-60
2022/04/16 00:11:54;;;;;;;3.43;2.60;;;;;;;;;;760981;184;919557;-60
2022/04/16 00:14:20;;;;;;;5.10;2.30;;;;;;;;;;756877;184;919205;-60
2022/04/16 00:16:45;;;;;;;3.87;1.73;;;;;;;;;;758483;184;919029;-59
2022/04/16 00:19:11;;;;;;;2.50;1.60;;;;;;;;;;757676;185;918741;-60
2022/04/16 00:21:37;;;;;;;3.37;2.17;;;;;;;;;;749039;185;919753;-60
2022/04/16 00:24:03;;;;;;;5.20;1.67;;;;;;;;;;750958;184;919263;-61
2022/04/16 00:26:29;;;;;;;3.37;1.63;;;;;;;;;;755056;184;968276;-62
2022/04/16 00:28:57;;;;;;;3.00;2.10;;;;;;;;;;760639;185;918468;-62
2022/04/16 00:31:21;;;;;;;3.00;1.73;;;;;;;;;;758011;185;918295;-62
2022/04/16 00:33:47;;;;;;;2.67;1.47;;;;;;;;;;756018;184;918599;-63
2022/04/16 00:36:14;;;;;;;4.97;1.77;;;;;;;;;;761697;185;918544;-62
2022/04/16 00:38:40;;;;;;;2.60;1.53;;;;;;;;;;749322;185;918654;-63
2022/04/16 00:41:06;;;;;;;3.40;1.87;;;;;;;;;;743230;188;919305;-64
2022/04/16 00:43:32;;;;;;;3.00;1.60;;;;;;;;;;759774;184;919381;-63
2022/04/16 00:45:59;;;;;;;2.60;1.30;;;;;;;;;;755896;184;919516;-63
2022/04/16 00:48:25;;;;;;;2.90;1.47;;;;;;;;;;752496;183;919249;-63
2022/04/16 00:50:51;;;;;;;2.50;1.50;;;;;;;;;;757853;184;920170;-62
2022/04/16 00:53:17;;;;;;;4.80;1.63;;;;;;;;;;760993;184;1021599;-61
2022/04/16 00:55:43;;;;;;;4.27;1.77;;;;;;;;;;760860;183;935729;-62
2022/04/16 00:58:09;;;;;;;2.22;1.35;;;;;;;;;;753940;183;919646;-61
2022/04/16 01:00:35;;;;;;;2.47;1.33;;;;;;;;;;764646;183;919339;-61
2022/04/16 01:03:01;;;;;;;2.53;1.37;;;;;;;;;;765426;183;919235;-60
2022/04/16 01:05:27;;;;;;;3.23;1.40;;;;;;;;;;748209;186;919670;-61
2022/04/16 01:07:54;;;;;;;2.20;1.10;;;;;;;;;;765662;183;971461;-61
2022/04/16 01:10:21;;;;;;;2.60;1.40;;;;;;;;;;758429;180;919239;-60
2022/04/16 01:12:47;;;;;;;2.60;1.10;;;;;;;;;;758241;184;919607;-60
2022/04/16 01:15:13;;;;;;;2.20;1.10;;;;;;;;;;750076;184;920050;-60
2022/04/16 01:17:39;;;;;;;2.20;1.47;;;;;;;;;;765642;184;919981;-60
2022/04/16 01:20:05;;;;;;;3.17;1.40;;;;;;;;;;756220;183;919379;-60
2022/04/16 01:22:31;;;;;;;2.50;1.30;;;;;;;;;;752322;184;919043;-60
2022/04/16 01:25:00;;;;;;;2.67;1.00;;;;;;;;;;761405;184;918989;-60
2022/04/16 01:27:24;;;;;;;2.83;1.10;;;;;;;;;;758090;184;919578;-61
2022/04/16 01:29:50;;;;;;;2.40;1.50;;;;;;;;;;757759;184;918733;-62
2022/04/16 01:32:14;;;;;;;4.23;1.60;;;;;;;;;;763727;184;916606;-62
2022/04/16 01:34:40;;;;;;;11.60;2.10;;;;;;;;;;754650;184;920170;-62
2022/04/16 01:37:09;;;;;;;2.43;1.40;;;;;;;;;;749980;185;1047062;-61
2022/04/16 01:39:33;;;;;;;3.23;1.90;;;;;;;;;;750925;184;919250;-62
2022/04/16 01:41:59;;;;;;;3.13;1.40;;;;;;;;;;753262;185;919466;-62
2022/04/16 01:44:26;;;;;;;4.33;2.60;;;;;;;;;;759678;184;920240;-62
2022/04/16 01:46:52;;;;;;;3.10;2.10;;;;;;;;;;760650;184;918850;-62
2022/04/16 01:49:20;;;;;;;3.90;2.10;;;;;;;;;;757653;184;919147;-62
2022/04/16 01:51:44;;;;;;;2.67;1.80;;;;;;;;;;757471;182;934987;-61
2022/04/16 01:54:10;;;;;;;3.37;2.00;;;;;;;;;;760306;183;918302;-61
2022/04/16 01:56:35;;;;;;;3.33;2.03;;;;;;;;;;767896;182;917638;-61
2022/04/16 01:59:02;;;;;;;3.40;1.80;;;;;;;;;;763851;182;920157;-61
2022/04/16 02:01:28;;;;;;;6.03;2.77;;;;;;;;;;762294;182;925338;-62
2022/04/16 02:03:53;;;;;;;4.00;2.77;;;;;;;;;;757683;184;1010749;-62
2022/04/16 02:06:19;;;;;;;3.60;2.43;;;;;;;;;;765938;183;920156;-61
2022/04/16 02:08:46;;;;;;;5.40;3.50;;;;;;;;;;763448;183;918986;-63
2022/04/16 02:11:10;;;;;;;6.57;3.70;;;;;;;;;;756942;184;919561;-62
2022/04/16 02:13:36;;;;;;;5.73;3.40;;;;;;;;;;761948;183;919212;-62
2022/04/16 02:16:02;;;;;;;6.80;3.72;;;;;;;;;;757233;184;919475;-62
2022/04/16 02:18:28;;;;;;;6.77;3.97;;;;;;;;;;755863;184;918287;-62
2022/04/16 02:20:54;;;;;;;5.40;3.80;;;;;;;;;;764091;184;919634;-62
2022/04/16 02:23:20;;;;;;;6.47;4.10;;;;;;;;;;763831;183;919572;-61
2022/04/16 02:25:46;;;;;;;7.67;4.83;;;;;;;;;;757705;184;919409;-62
2022/04/16 02:28:11;;;;;;;7.57;5.77;;;;;;;;;;757228;184;919102;-62
2022/04/16 02:30:37;;;;;;;7.43;4.53;;;;;;;;;;761259;184;920123;-61
2022/04/16 02:33:03;;;;;;;6.83;4.10;;;;;;;;;;754201;184;919285;-62
2022/04/16 02:35:29;;;;;;;5.53;4.20;;;;;;;;;;753223;184;919652;-62
2022/04/16 02:37:55;;;;;;;6.43;4.20;;;;;;;;;;764802;184;919194;-63
2022/04/16 02:40:21;;;;;;;7.87;4.23;;;;;;;;;;754114;184;930736;-62
2022/04/16 02:42:46;;;;;;;6.87;2.70;;;;;;;;;;754715;184;919519;-62
2022/04/16 02:47:44;;;;;;;3.67;2.27;;;;;;;;;;768654;183;917371;-62
2022/04/16 02:50:10;;;;;;;4.53;2.70;;;;;;;;;;761691;183;918674;-61
2022/04/16 02:52:37;;;;;;;4.00;2.40;;;;;;;;;;760201;183;919382;-62
2022/04/16 02:55:01;;;;;;;9.27;5.30;;;;;;;;;;765006;184;917681;-62
2022/04/16 02:57:27;;;;;;;8.50;5.00;;;;;;;;;;759265;184;919151;-62
2022/04/16 02:59:53;;;;;;;30.73;14.73;;;;;;;;;;758815;184;915524;-62
2022/04/16 03:02:19;;;;;;;12.87;6.93;;;;;;;;;;763305;184;922189;-62
2022/04/16 03:04:45;;;;;;;12.87;6.30;;;;;;;;;;759128;182;919312;-62
2022/04/16 03:07:10;;;;;;;4.07;2.23;;;;;;;;;;760063;184;920184;-62
2022/04/16 03:09:36;;;;;;;7.37;4.73;;;;;;;;;;759194;184;919279;-62
2022/04/16 03:12:02;;;;;;;6.10;2.80;;;;;;;;;;757403;182;922608;-62
2022/04/16 03:19:31;;;;;;;28.80;16.90;;;;;;;;;;761081;184;930130;-63
2022/04/16 03:21:57;;;;;;;16.50;9.10;;;;;;;;;;758443;183;930468;-61
2022/04/16 03:24:23;;;;;;;4.60;3.20;;;;;;;;;;749395;186;919125;-61
2022/04/16 03:26:49;;;;;;;4.73;2.93;;;;;;;;;;758429;183;920102;-62
2022/04/16 03:29:15;;;;;;;5.80;3.50;;;;;;;;;;760375;183;919589;-62
2022/04/16 03:31:41;;;;;;;4.28;3.08;;;;;;;;;;758625;184;919236;-62
2022/04/16 03:34:06;;;;;;;4.67;2.43;;;;;;;;;;758132;184;918902;-61
2022/04/16 03:36:32;;;;;;;6.07;3.37;;;;;;;;;;768045;183;919502;-62
2022/04/16 03:38:58;;;;;;;4.73;3.00;;;;;;;;;;761602;183;920380;-61
2022/04/16 03:41:24;;;;;;;5.03;3.27;;;;;;;;;;750871;184;919629;-62
2022/04/16 03:43:50;;;;;;;7.13;4.83;;;;;;;;;;757488;183;919159;-63
2022/04/16 03:46:16;;;;;;;5.80;4.27;;;;;;;;;;754989;182;919795;-62
2022/04/16 03:48:43;;;;;;;5.80;4.13;;;;;;;;;;757357;184;919349;-61
2022/04/16 03:51:07;;;;;;;6.60;4.70;;;;;;;;;;758910;183;919090;-62
2022/04/16 03:53:34;;;;;;;6.27;4.37;;;;;;;;;;756882;184;916928;-62
2022/04/16 04:01:02;;;;;;;11.07;6.60;;;;;;;;;;748183;185;1018223;-64
2022/04/16 04:03:28;;;;;;;10.10;7.17;;;;;;;;;;758391;184;917760;-62
2022/04/16 04:05:54;;;;;;;10.13;6.80;;;;;;;;;;759147;184;911882;-62
2022/04/16 04:08:20;;;;;;;7.77;5.00;;;;;;;;;;757014;184;913905;-61
2022/04/16 04:10:46;;;;;;;10.53;7.33;;;;;;;;;;763480;183;916363;-62
2022/04/16 04:13:11;;;;;;;11.67;6.20;;;;;;;;;;757941;184;915096;-63
2022/04/16 04:15:37;;;;;;;10.17;5.87;;;;;;;;;;751550;183;919889;-62
2022/04/16 04:18:03;;;;;;;10.17;6.50;;;;;;;;;;758798;184;919121;-62
2022/04/16 04:20:29;;;;;;;13.83;8.73;;;;;;;;;;757503;183;918708;-61
2022/04/16 04:22:55;;;;;;;11.93;7.77;;;;;;;;;;749613;187;920131;-61
2022/04/16 04:25:21;;;;;;;11.53;7.63;;;;;;;;;;759524;183;918736;-62
2022/04/16 04:27:47;;;;;;;10.27;6.53;;;;;;;;;;761505;183;919047;-62
2022/04/16 04:30:12;;;;;;;9.40;5.97;;;;;;;;;;753764;183;918556;-63
2022/04/16 04:32:38;;;;;;;9.53;6.90;;;;;;;;;;749966;184;919141;-62
2022/04/16 04:35:05;;;;;;;14.90;9.30;;;;;;;;;;762508;184;919090;-62
2022/04/16 04:37:30;;;;;;;15.60;8.70;;;;;;;;;;753173;184;919212;-62
2022/04/16 04:39:56;;;;;;;20.53;11.70;;;;;;;;;;751434;183;1451525;-63
2022/04/16 04:42:23;;;;;;;16.27;7.87;;;;;;;;;;761221;184;919103;-61
2022/04/16 04:44:49;;;;;;;9.67;6.67;;;;;;;;;;756219;184;918372;-62
2022/04/16 04:47:14;;;;;;;7.87;4.57;;;;;;;;;;755913;184;918656;-62
2022/04/16 04:49:40;;;;;;;9.80;6.10;;;;;;;;;;759545;184;918097;-61
2022/04/16 04:52:07;;;;;;;8.67;5.50;;;;;;;;;;746231;186;919202;-63
2022/04/16 04:54:33;;;;;;;11.67;6.47;;;;;;;;;;745889;184;919256;-63
2022/04/16 04:56:58;;;;;;;10.10;6.00;;;;;;;;;;750018;183;919600;-62
2022/04/16 04:59:24;;;;;;;10.33;8.20;;;;;;;;;;769119;183;918977;-63
2022/04/16 05:01:50;;;;;;;7.73;5.37;;;;;;;;;;752821;183;918910;-63
2022/04/16 05:04:16;;;;;;;10.03;6.70;;;;;;;;;;753255;184;920165;-62
2022/04/16 05:06:42;;;;;;;6.70;5.90;;;;;;;;;;765555;183;1022310;-61
2022/04/16 05:09:08;;;;;;;12.20;7.17;;;;;;;;;;760246;183;920064;-61
2022/04/16 05:11:33;;;;;;;7.33;4.03;;;;;;;;;;757370;184;922004;-63
2022/04/16 05:13:59;;;;;;;12.60;7.93;;;;;;;;;;756679;184;920826;-62
2022/04/16 05:16:25;;;;;;;11.73;6.57;;;;;;;;;;755322;184;1027237;-61
2022/04/16 05:18:51;;;;;;;14.13;7.87;;;;;;;;;;755624;184;919799;-60
2022/04/16 05:21:17;;;;;;;9.23;6.23;;;;;;;;;;756965;183;917912;-63
2022/04/16 05:23:43;;;;;;;13.43;8.07;;;;;;;;;;754282;184;922502;-61
2022/04/16 05:26:08;;;;;;;17.87;12.40;;;;;;;;;;759840;183;919526;-62
2022/04/16 05:28:34;;;;;;;18.60;7.93;;;;;;;;;;758224;182;924827;-62
2022/04/16 05:31:01;;;;;;;15.17;9.27;;;;;;;;;;755705;182;705401;-61
2022/04/16 05:35:58;;;;;;;20.30;10.90;;;;;;;;;;762500;182;987286;-62
2022/04/16 05:38:23;;;;;;;9.60;6.20;;;;;;;;;;758320;184;919408;-61
2022/04/16 05:40:49;;;;;;;25.93;11.27;;;;;;;;;;760951;183;918852;-61
2022/04/16 05:43:15;;;;;;;13.80;9.07;;;;;;;;;;757714;184;918988;-61
2022/04/16 05:45:41;;;;;;;14.77;9.97;;;;;;;;;;757170;184;917830;-62
2022/04/16 05:48:07;;;;;;;14.73;7.70;;;;;;;;;;763108;184;919519;-63
2022/04/16 05:50:33;;;;;;;13.67;7.83;;;;;;;;;;757174;184;919187;-63
2022/04/16 05:52:59;;;;;;;15.87;8.63;;;;;;;;;;757796;183;918960;-61
2022/04/16 05:55:24;;;;;;;6.00;4.50;;;;;;;;;;759449;184;918859;-63
2022/04/16 05:57:50;;;;;;;12.05;5.70;;;;;;;;;;754247;183;923275;-62
2022/04/16 06:00:16;;;;;;;7.63;4.73;;;;;;;;;;755928;184;920312;-63
2022/04/16 06:02:43;;;;;;;18.10;6.47;;;;;;;;;;761061;183;918729;-62
2022/04/16 06:05:09;;;;;;;12.37;7.53;;;;;;;;;;757607;184;919727;-62
2022/04/16 06:07:34;;;;;;;11.03;6.10;;;;;;;;;;760392;183;919438;-62
2022/04/16 06:10:00;;;;;;;13.40;6.97;;;;;;;;;;765574;183;919359;-62
2022/04/16 06:12:26;;;;;;;6.47;4.70;;;;;;;;;;759583;184;917749;-60
2022/04/16 06:14:52;;;;;;;8.83;5.20;;;;;;;;;;750859;184;919095;-62
2022/04/16 06:17:18;;;;;;;10.63;5.40;;;;;;;;;;754285;184;920443;-61
2022/04/16 06:19:44;;;;;;;15.40;6.87;;;;;;;;;;759023;184;918507;-61
2022/04/16 06:22:10;;;;;;;7.63;5.40;;;;;;;;;;759302;183;810203;-62
2022/04/16 06:24:37;;;;;;;7.37;4.53;;;;;;;;;;755412;184;917942;-61
2022/04/16 06:27:03;;;;;;;7.30;4.70;;;;;;;;;;760059;184;918983;-62
2022/04/16 06:29:29;;;;;;;6.93;4.10;;;;;;;;;;756225;184;917923;-63
2022/04/16 06:31:55;;;;;;;5.35;3.53;;;;;;;;;;754365;184;917658;-62
2022/04/16 06:34:23;;;;;;;5.97;3.90;;;;;;;;;;756949;184;919190;-61
2022/04/16 06:36:46;;;;;;;10.93;8.07;;;;;;;;;;759485;183;895055;-62
2022/04/16 06:39:12;;;;;;;15.00;7.10;;;;;;;;;;763473;182;619252;-62
2022/04/16 06:41:38;;;;;;;6.13;4.77;;;;;;;;;;762337;184;629267;-61
2022/04/16 06:44:04;;;;;;;7.60;5.50;;;;;;;;;;765628;183;611951;-63
2022/04/16 06:46:30;;;;;;;7.40;4.10;;;;;;;;;;758100;183;1023997;-61
2022/04/16 06:48:56;;;;;;;6.73;4.23;;;;;;;;;;756921;184;916463;-61
2022/04/16 06:51:21;;;;;;;6.10;3.97;;;;;;;;;;763385;184;915877;-61
2022/04/16 06:53:47;;;;;;;6.53;4.53;;;;;;;;;;751415;184;919915;-63
2022/04/16 06:56:13;;;;;;;7.87;5.40;;;;;;;;;;753933;184;1123304;-62
2022/04/16 06:58:39;;;;;;;4.80;3.03;;;;;;;;;;759191;183;919742;-63
2022/04/16 07:01:05;;;;;;;14.70;7.37;;;;;;;;;;765342;184;617458;-62
2022/04/16 07:03:31;;;;;;;4.97;3.58;;;;;;;;;;755466;183;918836;-62
2022/04/16 07:05:56;;;;;;;11.27;5.33;;;;;;;;;;756877;184;918758;-62
2022/04/16 07:08:22;;;;;;;7.03;4.40;;;;;;;;;;758607;183;919263;-62
2022/04/16 07:10:48;;;;;;;6.80;3.57;;;;;;;;;;757483;183;919919;-62
2022/04/16 07:13:14;;;;;;;5.47;4.85;;;;;;;;;;755840;183;918619;-63
2022/04/16 07:15:40;;;;;;;6.43;4.27;;;;;;;;;;759566;184;919256;-62
2022/04/16 07:18:07;;;;;;;11.52;5.57;;;;;;;;;;759626;183;918650;-62
2022/04/16 07:20:31;;;;;;;13.00;7.77;;;;;;;;;;756256;184;919086;-60
2022/04/16 07:22:57;;;;;;;11.55;4.37;;;;;;;;;;758915;184;920079;-62
2022/04/16 07:25:23;;;;;;;4.13;3.00;;;;;;;;;;749068;187;918815;-63
2022/04/16 07:27:49;;;;;;;7.67;4.87;;;;;;;;;;751394;183;920443;-63
2022/04/16 07:30:15;;;;;;;6.63;4.10;;;;;;;;;;747736;186;920343;-63
2022/04/16 07:32:41;;;;;;;5.83;4.20;;;;;;;;;;734346;190;914925;-62
2022/04/16 07:35:07;;;;;;;11.80;6.87;;;;;;;;;;738800;187;919368;-63
2022/04/16 07:37:32;;;;;;;6.03;4.62;;;;;;;;;;756063;184;915325;-62
2022/04/16 07:39:58;;;;;;;6.23;4.10;;;;;;;;;;757584;183;915250;-62
2022/04/16 07:42:25;;;;;;;5.40;4.17;;;;;;;;;;753498;183;921326;-62
2022/04/16 07:44:51;;;;;;;5.90;3.83;;;;;;;;;;754520;183;914772;-61
2022/04/16 07:47:16;;;;;;;6.95;2.85;;;;;;;;;;758204;183;917265;-62
2022/04/16 07:49:42;;;;;;;10.53;4.30;;;;;;;;;;755143;184;918938;-62
2022/04/16 07:52:08;;;;;;;8.17;4.67;;;;;;;;;;757405;182;918097;-61
2022/04/16 07:54:34;;;;;;;7.32;4.70;;;;;;;;;;755633;182;919760;-62
2022/04/16 07:57:00;;;;;;;14.00;7.00;;;;;;;;;;753444;186;920481;-63
2022/04/16 07:59:26;;;;;;;16.70;5.53;;;;;;;;;;751681;184;919733;-63
2022/04/16 08:01:51;;;;;;;7.97;4.30;;;;;;;;;;751182;184;919765;-61
2022/04/16 08:04:17;;;;;;;5.70;4.30;;;;;;;;;;765139;183;916786;-63
2022/04/16 08:06:43;;;;;;;8.50;3.87;;;;;;;;;;753614;183;918872;-62
2022/04/16 08:09:09;;;;;;;5.67;3.50;;;;;;;;;;754477;183;921153;-60
2022/04/16 08:11:35;;;;;;;14.27;9.30;;;;;;;;;;748703;184;923262;-63
2022/04/16 08:14:01;;;;;;;9.60;7.47;;;;;;;;;;757094;184;920194;-62
2022/04/16 08:16:27;;;;;;;7.33;4.30;;;;;;;;;;762362;183;630151;-64
2022/04/16 08:18:52;;;;;;;8.45;5.60;;;;;;;;;;757278;184;1021450;-62
2022/04/16 08:21:20;;;;;;;12.90;6.83;;;;;;;;;;762570;182;816273;-62
2022/04/16 08:23:55;;;;;;;8.80;5.57;;;;;;;;;;759406;183;919041;-62
2022/04/16 08:26:10;;;;;;;8.93;6.83;;;;;;;;;;755020;184;947251;-62
2022/04/16 08:28:36;;;;;;;22.27;12.20;;;;;;;;;;762728;183;919675;-62
2022/04/16 08:31:02;;;;;;;13.73;6.70;;;;;;;;;;754445;184;923374;-62
2022/04/16 08:33:28;;;;;;;10.83;6.80;;;;;;;;;;752344;183;925261;-63
2022/04/16 08:35:53;;;;;;;13.27;8.97;;;;;;;;;;768939;183;918952;-60
2022/04/16 08:38:19;;;;;;;12.87;7.27;;;;;;;;;;759813;183;919189;-62
2022/04/16 08:40:45;;;;;;;12.37;8.37;;;;;;;;;;758181;184;920417;-62
2022/04/16 08:43:11;;;;;;;15.18;9.23;;;;;;;;;;755139;184;917940;-61
2022/04/16 08:45:37;;;;;;;13.20;8.60;;;;;;;;;;762635;184;918272;-61
2022/04/16 08:48:03;;;;;;;10.60;7.77;;;;;;;;;;753957;184;919206;-62
2022/04/16 08:50:29;;;;;;;15.80;10.93;;;;;;;;;;743994;187;1224402;-60
2022/04/16 08:52:55;;;;;;;15.07;9.87;;;;;;;;;;753227;185;917252;-62
2022/04/16 08:55:21;;;;;;;15.30;11.30;;;;;;;;;;749469;184;919496;-63
2022/04/16 08:57:47;;;;;;;18.30;10.50;;;;;;;;;;745289;184;910631;-62
2022/04/16 09:00:13;;;;;;;13.20;8.97;;;;;;;;;;756804;184;919752;-61
2022/04/16 09:02:39;;;;;;;21.67;11.53;;;;;;;;;;763244;182;918774;-60
2022/04/16 09:05:05;;;;;;;18.47;12.33;;;;;;;;;;761401;184;919627;-62
2022/04/16 09:07:31;;;;;;;20.98;14.52;;;;;;;;;;754808;182;919804;-61
2022/04/16 09:10:03;;;;;;;15.60;12.33;;;;;;;;;;754249;186;918719;-62
2022/04/16 09:12:29;;;;;;;17.53;11.10;;;;;;;;;;756103;183;918761;-61
2022/04/16 09:14:55;;;;;;;23.53;17.13;;;;;;;;;;762152;183;920190;-62
2022/04/16 09:17:21;;;;;;;14.13;10.40;;;;;;;;;;750032;186;919312;-61
2022/04/16 09:19:53;;;;;;;16.50;11.47;;;;;;;;;;750888;183;1021464;-62
2022/04/16 09:22:24;;;;;;;19.23;13.73;;;;;;;;;;748728;185;918109;-63
2022/04/16 09:24:50;;;;;;;15.47;9.80;;;;;;;;;;749924;184;1495000;-62
2022/04/16 09:27:16;;;;;;;41.53;25.53;;;;;;;;;;766586;183;653574;-61
2022/04/16 09:29:43;;;;;;;18.60;13.70;;;;;;;;;;748139;184;919600;-61
2022/04/16 09:32:08;;;;;;;16.97;12.47;;;;;;;;;;748216;184;1020788;-62
2022/04/16 09:34:34;;;;;;;15.80;11.65;;;;;;;;;;761494;183;922809;-62
2022/04/16 09:37:06;;;;;;;19.67;13.47;;;;;;;;;;750839;184;919439;-61
2022/04/16 09:39:31;;;;;;;10.17;7.37;;;;;;;;;;759282;183;914779;-62
2022/04/16 09:41:57;;;;;;;13.30;10.10;;;;;;;;;;753536;184;918986;-63
2022/04/16 09:44:25;;;;;;;12.90;9.90;;;;;;;;;;759141;183;918015;-63
2022/04/16 09:46:49;;;;;;;14.13;11.77;;;;;;;;;;760586;183;918543;-63
2022/04/16 09:49:15;;;;;;;26.37;15.35;;;;;;;;;;753203;183;921028;-62
2022/04/16 09:51:42;;;;;;;22.25;16.58;;;;;;;;;;761404;183;917132;-63
2022/04/16 09:54:07;;;;;;;17.00;11.67;;;;;;;;;;763075;183;1026150;-63
2022/04/16 09:56:33;;;;;;;17.83;12.07;;;;;;;;;;754744;184;918860;-63
2022/04/16 09:58:59;;;;;;;26.17;16.80;;;;;;;;;;752526;184;919061;-66
2022/04/16 10:01:25;;;;;;;19.07;13.77;;;;;;;;;;762350;184;917962;-62
2022/04/16 10:03:51;;;;;;;17.50;11.67;;;;;;;;;;751496;183;921086;-62
2022/04/16 10:06:16;;;;;;;25.03;13.90;;;;;;;;;;759766;184;919299;-62
2022/04/16 10:08:42;;;;;;;20.77;13.87;;;;;;;;;;763699;183;930018;-62
2022/04/16 10:11:08;;;;;;;28.70;17.23;;;;;;;;;;754350;184;919652;-61
2022/04/16 10:13:35;;;;;;;25.40;14.07;;;;;;;;;;757447;182;920435;-62
2022/04/16 10:16:05;;;;;;;21.77;13.47;;;;;;;;;;757314;182;917917;-64
2022/04/16 10:18:31;;;;;;;20.50;13.50;;;;;;;;;;763768;183;919529;-63
2022/04/16 10:20:57;;;;;;;25.93;17.30;;;;;;;;;;760974;184;620887;-62
2022/04/16 10:23:32;;;;;;;25.37;16.10;;;;;;;;;;756742;184;1000720;-63
2022/04/16 10:26:09;;;;;;;25.73;15.33;;;;;;;;;;754953;184;1038703;-62
2022/04/16 10:28:52;;;;;;;20.77;15.73;;;;;;;;;;758225;184;918609;-64
2022/04/16 10:31:19;;;;;;;28.40;14.90;;;;;;;;;;763370;183;918334;-62
2022/04/16 10:33:46;;;;;;;18.77;14.27;;;;;;;;;;755187;183;919291;-63
2022/04/16 10:36:11;;;;;;;19.27;11.90;;;;;;;;;;753615;184;1023220;-61
2022/04/16 10:38:38;;;;;;;16.87;13.63;;;;;;;;;;756495;184;1021209;-61
2022/04/16 10:41:03;;;;;;;14.87;10.53;;;;;;;;;;758666;184;918845;-62
2022/04/16 10:43:29;;;;;;;21.97;15.10;;;;;;;;;;758308;183;919588;-63
2022/04/16 10:45:56;;;;;;;20.20;13.97;;;;;;;;;;754938;183;1018498;-63
2022/04/16 10:48:21;;;;;;;17.37;12.97;;;;;;;;;;761592;184;950706;-61
2022/04/16 10:50:47;;;;;;;18.60;13.47;;;;;;;;;;760594;184;913270;-64
2022/04/16 10:53:15;;;;;;;14.53;8.77;;;;;;;;;;758819;183;919399;-62
2022/04/16 10:55:39;;;;;;;11.73;8.63;;;;;;;;;;762136;184;919053;-62
2022/04/16 10:58:05;;;;;;;13.67;10.10;;;;;;;;;;751026;183;918796;-63
2022/04/16 11:00:34;;;;;;;16.10;11.17;;;;;;;;;;759941;180;919287;-62
2022/04/16 11:03:09;;;;;;;15.57;9.80;;;;;;;;;;754200;183;919844;-62
2022/04/16 11:05:36;;;;;;;13.43;9.70;;;;;;;;;;765784;183;919220;-63
2022/04/16 11:08:00;;;;;;;12.67;10.30;;;;;;;;;;754530;183;920675;-63
2022/04/16 11:10:26;;;;;;;9.60;6.80;;;;;;;;;;752342;183;1017309;-62
2022/04/16 11:12:52;;;;;;;11.47;9.07;;;;;;;;;;755132;183;898720;-62
2022/04/16 11:15:23;;;;;;;15.30;11.03;;;;;;;;;;765154;183;918889;-62
2022/04/16 11:17:44;;;;;;;11.47;7.93;;;;;;;;;;755424;184;919087;-62
2022/04/16 11:20:10;;;;;;;12.03;9.20;;;;;;;;;;755103;184;921301;-62
2022/04/16 11:22:36;;;;;;;11.80;9.23;;;;;;;;;;763869;183;914334;-62
2022/04/16 11:25:02;;;;;;;9.97;6.73;;;;;;;;;;758579;182;916653;-64
2022/04/16 11:35:03;;;;;;;9.07;8.00;;;;;;;;;;759576;182;918315;-62
2022/04/16 11:37:32;;;;;;;7.20;6.20;;;;;;;;;;760309;183;919213;-62
2022/04/16 11:39:57;;;;;;;7.60;6.60;;;;;;;;;;750726;180;920801;-62
2022/04/16 11:42:26;;;;;;;11.63;7.90;;;;;;;;;;764674;183;920417;-62
2022/04/16 11:44:52;;;;;;;8.07;5.90;;;;;;;;;;756127;183;915557;-63
2022/04/16 11:47:17;;;;;;;7.60;6.10;;;;;;;;;;752549;184;919052;-62
2022/04/16 11:49:42;;;;;;;8.50;6.30;;;;;;;;;;766381;183;917868;-63
2022/04/16 11:52:08;;;;;;;6.10;4.33;;;;;;;;;;758856;183;922921;-62
2022/04/16 11:54:35;;;;;;;7.37;6.43;;;;;;;;;;754494;183;919789;-63
2022/04/16 11:57:00;;;;;;;11.07;6.00;;;;;;;;;;758170;183;919114;-64
2022/04/16 11:59:26;;;;;;;8.87;6.60;;;;;;;;;;754270;186;914760;-64
2022/04/16 12:01:58;;;;;;;8.70;5.68;;;;;;;;;;760896;182;919955;-62
2022/04/16 12:04:30;;;;;;;7.53;5.50;;;;;;;;;;753685;184;919234;-63
2022/04/16 12:06:56;;;;;;;8.23;5.10;;;;;;;;;;755377;183;918067;-63
2022/04/16 12:09:23;;;;;;;13.37;9.20;;;;;;;;;;756907;184;913654;-64
2022/04/16 12:11:49;;;;;;;24.90;14.33;;;;;;;;;;753731;184;912795;-64
2022/04/16 12:14:16;;;;;;;8.63;7.00;;;;;;;;;;754494;184;916134;-65
2022/04/16 12:16:42;;;;;;;11.40;7.93;;;;;;;;;;759844;184;914055;-65
2022/04/16 12:19:08;;;;;;;15.13;9.27;;;;;;;;;;756471;183;1143170;-64
2022/04/16 12:21:34;;;;;;;10.87;7.37;;;;;;;;;;755473;184;912160;-63
2022/04/16 12:24:04;;;;;;;10.00;6.60;;;;;;;;;;765292;183;911504;-65
2022/04/16 12:26:30;;;;;;;25.67;11.10;;;;;;;;;;763331;183;914601;-65
2022/04/16 12:28:56;;;;;;;22.17;10.57;;;;;;;;;;761912;184;623801;-64
2022/04/16 12:31:26;;;;;;;9.83;5.17;;;;;;;;;;765619;183;623739;-64
2022/04/16 12:33:52;;;;;;;8.13;4.47;;;;;;;;;;764426;183;918311;-64
2022/04/16 12:36:18;;;;;;;8.83;4.93;;;;;;;;;;764525;183;624239;-64
2022/04/16 12:38:44;;;;;;;5.00;3.57;;;;;;;;;;756705;183;918202;-63
2022/04/16 12:41:10;;;;;;;8.40;5.93;;;;;;;;;;760173;183;630743;-64
2022/04/16 12:43:36;;;;;;;8.60;6.33;;;;;;;;;;756869;184;642876;-66
2022/04/16 12:46:02;;;;;;;5.30;4.20;;;;;;;;;;761532;182;635428;-65
2022/04/16 12:48:28;;;;;;;9.33;5.40;;;;;;;;;;758164;184;633061;-64
2022/04/16 12:50:54;;;;;;;6.13;5.57;;;;;;;;;;762301;184;630716;-64
2022/04/16 12:53:20;;;;;;;5.80;4.30;;;;;;;;;;763514;183;620278;-64
2022/04/16 12:55:46;;;;;;;11.37;6.50;;;;;;;;;;758027;184;923630;-64
2022/04/16 12:58:11;;;;;;;4.60;3.70;;;;;;;;;;764350;184;918826;-64
2022/04/16 13:00:37;;;;;;;6.03;3.00;;;;;;;;;;752118;184;631001;-64
2022/04/16 13:03:03;;;;;;;9.00;7.57;;;;;;;;;;746219;184;919012;-64
2022/04/16 13:05:29;;;;;;;8.13;3.67;;;;;;;;;;764236;183;918229;-65
2022/04/16 13:07:57;;;;;;;16.07;9.10;;;;;;;;;;747172;184;917435;-64
2022/04/16 13:10:21;;;;;;;8.40;5.40;;;;;;;;;;759396;183;920362;-64
2022/04/16 13:12:47;;;;;;;4.10;2.93;;;;;;;;;;758302;184;919138;-64
2022/04/16 13:15:12;;;;;;;5.40;3.80;;;;;;;;;;763317;184;918368;-63
2022/04/16 13:17:39;;;;;;;10.50;7.27;;;;;;;;;;754772;184;918933;-64
2022/04/16 13:20:06;;;;;;;8.33;5.00;;;;;;;;;;758720;181;918832;-64
2022/04/16 13:22:31;;;;;;;4.62;3.15;;;;;;;;;;758827;184;918340;-64
2022/04/16 13:24:57;;;;;;;4.67;3.60;;;;;;;;;;756697;184;918576;-63
2022/04/16 13:27:23;;;;;;;4.47;2.70;;;;;;;;;;756274;184;918700;-63
2022/04/16 13:29:49;;;;;;;7.27;5.53;;;;;;;;;;764144;184;918165;-64
2022/04/16 13:32:15;;;;;;;7.07;4.03;;;;;;;;;;757313;184;918941;-64
2022/04/16 13:34:43;;;;;;;7.22;5.60;;;;;;;;;;756984;184;919548;-65
2022/04/16 13:37:07;;;;;;;4.77;2.97;;;;;;;;;;756997;184;919099;-65
2022/04/16 13:42:04;;;;;;;7.67;5.37;;;;;;;;;;757090;184;917976;-64
2022/04/16 13:44:30;;;;;;;3.37;2.13;;;;;;;;;;762152;183;917562;-65
2022/04/16 13:46:56;;;;;;;6.27;3.10;;;;;;;;;;761692;183;919541;-65
2022/04/16 13:49:22;;;;;;;4.93;3.00;;;;;;;;;;757561;183;921694;-63
2022/04/16 13:51:48;;;;;;;4.03;3.10;;;;;;;;;;755672;184;919016;-64
2022/04/16 13:54:14;;;;;;;7.60;3.57;;;;;;;;;;755300;183;918851;-65
2022/04/16 13:56:39;;;;;;;6.43;3.50;;;;;;;;;;760740;183;939857;-65
2022/04/16 13:59:06;;;;;;;4.30;3.40;;;;;;;;;;757597;183;919168;-64
2022/04/16 14:01:32;;;;;;;3.20;2.50;;;;;;;;;;755659;184;918659;-65
2022/04/16 14:03:58;;;;;;;5.23;2.50;;;;;;;;;;763219;183;920704;-65
2022/04/16 14:06:24;;;;;;;6.13;3.07;;;;;;;;;;760727;184;917964;-64
2022/04/16 14:08:50;;;;;;;4.90;3.10;;;;;;;;;;749692;184;1124122;-65
2022/04/16 14:11:15;;;;;;;3.87;2.70;;;;;;;;;;759814;184;919014;-66
2022/04/16 14:13:41;;;;;;;3.90;2.53;;;;;;;;;;754165;183;918981;-64
2022/04/16 14:16:09;;;;;;;4.45;3.12;;;;;;;;;;751526;184;923823;-64
2022/04/16 14:18:34;;;;;;;4.60;3.17;;;;;;;;;;755413;184;920507;-65
2022/04/16 14:20:59;;;;;;;3.50;1.60;;;;;;;;;;761171;183;919307;-65
2022/04/16 14:23:27;;;;;;;5.70;2.47;;;;;;;;;;754552;184;919576;-65
2022/04/16 14:25:53;;;;;;;4.73;2.87;;;;;;;;;;753087;183;972308;-64
2022/04/16 14:28:19;;;;;;;4.80;3.37;;;;;;;;;;758221;184;921780;-66
2022/04/16 14:30:45;;;;;;;3.20;2.45;;;;;;;;;;758592;184;918232;-65
2022/04/16 14:33:11;;;;;;;3.60;1.90;;;;;;;;;;757728;184;918584;-64
2022/04/16 14:35:36;;;;;;;3.53;2.00;;;;;;;;;;762583;184;917129;-64
2022/04/16 14:38:03;;;;;;;3.43;2.30;;;;;;;;;;754127;184;1225647;-64
2022/04/16 14:40:28;;;;;;;3.50;1.93;;;;;;;;;;755879;183;918331;-65